Time;durP1;ratioP1;P1;durP2;ratioP2;P2;SDS_P1;SDS_P2;PMS_P1;PMS_P2;Temp;Humidity;BMP_temperature;BMP_pressure;BME280_temperature;BME280_humidity;BME280_pressure;Samples;Min_cycle;Max_cycle;Signal;HPM_P1;HPM_P2
2022/02/12 00:00:45;;;;;;;6.32;1.63;;;;;;;2.68;49.95;98659.63;5032879;28;19936;-73
2022/02/12 00:03:11;;;;;;;11.90;2.20;;;;;;;2.67;50.24;98668.78;5031045;28;20145;-73
2022/02/12 00:05:37;;;;;;;6.25;1.70;;;;;;;2.72;50.11;98670.69;5023686;28;20050;-72
2022/02/12 00:08:04;;;;;;;6.20;1.50;;;;;;;2.75;49.91;98675.63;5028671;28;20410;-71
2022/02/12 00:10:31;;;;;;;9.88;1.80;;;;;;;2.80;50.14;98674.84;5026090;28;20049;-73
2022/02/12 00:13:01;;;;;;;9.43;1.70;;;;;;;2.81;50.00;98669.22;5029945;28;20137;-72
2022/02/12 00:15:27;;;;;;;5.40;1.55;;;;;;;2.78;50.14;98661.63;5028855;28;20050;-73
2022/02/12 00:17:56;;;;;;;4.95;1.45;;;;;;;2.78;50.22;98660.78;5032355;28;20544;-72
2022/02/12 00:20:22;;;;;;;12.20;2.30;;;;;;;2.75;50.07;98654.03;5028412;28;20104;-73
2022/02/12 00:22:48;;;;;;;9.40;1.98;;;;;;;2.79;50.08;98673.22;5013677;28;20053;-73
2022/02/12 00:25:14;;;;;;;9.55;1.85;;;;;;;2.75;49.97;98664.84;5019786;28;20065;-73
2022/02/12 00:27:40;;;;;;;9.30;2.10;;;;;;;2.74;50.25;98665.91;5023889;28;20510;-71
2022/02/12 00:30:10;;;;;;;7.80;1.80;;;;;;;2.75;50.21;98664.84;5015789;28;21622;-72
2022/02/12 00:32:36;;;;;;;6.30;1.50;;;;;;;2.67;50.27;98663.38;5031254;28;20046;-73
2022/02/12 00:35:03;;;;;;;7.75;1.65;;;;;;;2.64;50.89;98660.34;5029158;28;20049;-71
2022/02/12 00:37:30;;;;;;;10.45;1.85;;;;;;;2.62;50.96;98652.50;5029891;28;20508;-73
2022/02/12 00:39:57;;;;;;;7.20;1.50;;;;;;;2.66;50.91;98653.66;5008514;28;20050;-77
2022/02/12 00:42:24;;;;;;;7.63;1.30;;;;;;;2.61;51.15;98661.66;5027557;28;20472;-76
2022/02/12 00:44:51;;;;;;;7.47;1.73;;;;;;;2.52;51.45;98655.09;5030427;28;20045;-76
2022/02/12 00:47:19;;;;;;;12.38;1.92;;;;;;;2.52;51.64;98661.28;5031932;28;20072;-77
2022/02/12 00:49:45;;;;;;;13.02;2.22;;;;;;;2.58;51.53;98661.38;5031734;28;20081;-77
2022/02/12 00:52:11;;;;;;;8.88;1.90;;;;;;;2.52;51.40;98663.19;5027822;28;20084;-75
2022/02/12 00:54:38;;;;;;;8.73;1.80;;;;;;;2.53;51.53;98678.31;5031468;28;20152;-75
2022/02/12 00:57:04;;;;;;;7.78;1.77;;;;;;;2.55;51.42;98676.97;5031625;28;20079;-75
2022/02/12 00:59:30;;;;;;;10.10;1.50;;;;;;;2.52;51.25;98674.78;5018761;28;20050;-75
2022/02/12 01:01:56;;;;;;;7.65;1.50;;;;;;;2.54;51.31;98672.66;5017388;28;20048;-74
2022/02/12 01:04:24;;;;;;;11.88;2.00;;;;;;;2.50;51.38;98676.91;5009984;28;20046;-74
2022/02/12 01:06:50;;;;;;;9.15;1.70;;;;;;;2.49;51.30;98674.44;5012931;28;20457;-74
2022/02/12 01:09:16;;;;;;;7.15;1.70;;;;;;;2.40;51.63;98665.97;5026000;28;20053;-74
2022/02/12 01:11:42;;;;;;;7.95;1.90;;;;;;;2.38;51.84;98679.72;5028750;28;20129;-74
2022/02/12 01:14:10;;;;;;;7.60;2.10;;;;;;;2.46;51.87;98678.47;5046670;28;20053;-77
2022/02/12 01:16:36;;;;;;;8.23;1.70;;;;;;;2.54;51.53;98674.53;5030310;28;20465;-77
2022/02/12 01:19:02;;;;;;;10.68;1.70;;;;;;;2.48;51.63;98662.84;5029650;28;20529;-75
2022/02/12 01:21:30;;;;;;;10.43;1.63;;;;;;;2.56;51.26;98667.00;5031287;28;20133;-74
2022/02/12 01:23:56;;;;;;;10.02;1.88;;;;;;;2.35;51.78;98642.47;5031402;28;20136;-75
2022/02/12 01:26:22;;;;;;;9.27;2.08;;;;;;;2.52;51.85;98671.28;5027914;28;20053;-76
2022/02/12 01:28:49;;;;;;;12.70;2.40;;;;;;;2.57;51.59;98665.09;5029884;28;20045;-76
2022/02/12 01:31:15;;;;;;;7.07;1.77;;;;;;;2.58;51.65;98664.88;5030023;28;20137;-76
2022/02/12 01:33:41;;;;;;;10.60;2.13;;;;;;;2.62;51.66;98676.78;5030331;28;20464;-76
2022/02/12 01:36:07;;;;;;;9.63;1.85;;;;;;;2.61;51.63;98674.38;5012427;28;20042;-75
2022/02/12 01:38:35;;;;;;;11.90;2.45;;;;;;;2.62;51.71;98678.69;5029602;28;20053;-76
2022/02/12 01:41:01;;;;;;;10.48;2.40;;;;;;;2.59;52.09;98677.28;5029172;28;20060;-76
2022/02/12 01:43:27;;;;;;;7.30;1.67;;;;;;;2.59;52.20;98671.09;5022661;28;20072;-76
2022/02/12 01:45:53;;;;;;;10.25;1.77;;;;;;;2.58;52.25;98677.56;5030473;28;20107;-77
2022/02/12 01:48:19;;;;;;;9.90;2.28;;;;;;;2.60;52.22;98678.13;5029564;28;20166;-76
2022/02/12 01:50:49;;;;;;;7.95;1.73;;;;;;;2.60;52.21;98670.84;5029119;28;20041;-76
2022/02/12 01:53:16;;;;;;;8.55;1.90;;;;;;;2.64;52.31;98677.34;5028029;28;20068;-77
2022/02/12 01:55:43;;;;;;;7.68;1.90;;;;;;;2.67;52.14;98678.75;5028341;28;20045;-76
2022/02/12 01:58:10;;;;;;;12.93;1.92;;;;;;;2.68;52.25;98674.97;5030055;28;20049;-76
2022/02/12 02:00:37;;;;;;;10.23;1.80;;;;;;;2.64;52.36;98677.34;5012849;28;20052;-75
2022/02/12 02:03:04;;;;;;;8.38;1.90;;;;;;;2.63;52.49;98678.44;5028563;28;20431;-76
2022/02/12 02:05:33;;;;;;;12.73;2.20;;;;;;;2.70;52.37;98675.53;5028492;28;20422;-75
2022/02/12 02:08:00;;;;;;;6.93;1.67;;;;;;;2.63;52.54;98667.63;5029582;28;20046;-74
2022/02/12 02:10:26;;;;;;;8.07;1.70;;;;;;;2.72;52.48;98672.59;5031360;28;20060;-74
2022/02/12 02:12:55;;;;;;;9.63;1.80;;;;;;;2.67;52.56;98678.75;5016278;28;20072;-75
2022/02/12 02:15:21;;;;;;;6.15;1.60;;;;;;;2.59;52.79;98687.28;5028679;28;20045;-74
2022/02/12 02:17:47;;;;;;;11.98;1.63;;;;;;;2.57;53.03;98689.41;5030118;28;20460;-78
2022/02/12 02:20:13;;;;;;;7.30;1.80;;;;;;;2.62;53.07;98690.28;5030999;28;20403;-77
2022/02/12 02:22:49;;;;;;;10.88;2.38;;;;;;;2.65;52.97;98697.91;5033434;28;20073;-77
2022/02/12 02:25:15;;;;;;;10.73;1.85;;;;;;;2.62;53.15;98698.38;5032225;28;20104;-77
2022/02/12 02:27:41;;;;;;;6.78;1.65;;;;;;;2.51;53.34;98693.94;5033927;28;20067;-78
2022/02/12 02:30:11;;;;;;;9.30;1.92;;;;;;;2.57;53.38;98703.72;5033635;28;20497;-77
2022/02/12 02:32:40;;;;;;;5.88;1.63;;;;;;;2.59;53.07;98708.88;5031190;28;20045;-77
2022/02/12 02:35:07;;;;;;;6.57;1.80;;;;;;;2.61;53.15;98706.75;5033502;28;20095;-77
2022/02/12 02:37:33;;;;;;;8.07;1.73;;;;;;;2.57;53.28;98706.41;5033345;28;20037;-77
2022/02/12 02:40:01;;;;;;;9.68;1.70;;;;;;;2.54;53.32;98709.63;5033252;28;20144;-76
2022/02/12 02:42:27;;;;;;;11.40;2.33;;;;;;;2.50;53.51;98712.00;5030718;28;20136;-76
2022/02/12 02:44:53;;;;;;;8.38;1.95;;;;;;;2.53;53.40;98710.69;5032758;28;20049;-76
2022/02/12 02:47:33;;;;;;;14.13;2.30;;;;;;;2.46;53.72;98716.25;5033178;28;20087;-77
2022/02/12 02:50:01;;;;;;;10.68;2.63;;;;;;;2.50;53.89;98717.38;5023312;28;20050;-76
2022/02/12 02:58:01;;;;;;;11.70;2.67;;;;;;;2.43;54.14;98719.47;5031936;28;20128;-77
2022/02/12 03:00:27;;;;;;;7.53;1.90;;;;;;;2.44;54.43;98733.75;5027499;28;20085;-77
2022/02/12 03:02:53;;;;;;;10.90;2.80;;;;;;;2.46;54.45;98721.66;5032927;28;20046;-77
2022/02/12 03:05:19;;;;;;;11.25;2.63;;;;;;;2.44;54.54;98718.41;5031217;28;20510;-76
2022/02/12 03:07:46;;;;;;;18.52;3.25;;;;;;;2.46;54.64;98721.66;5032871;28;20045;-76
2022/02/12 03:10:12;;;;;;;9.23;2.10;;;;;;;2.50;54.66;98717.38;5003074;28;20048;-77
2022/02/12 03:12:39;;;;;;;12.25;2.40;;;;;;;2.53;54.65;98722.28;5033128;28;20050;-77
2022/02/12 03:15:06;;;;;;;;;;;;;;;2.48;54.71;98729.50;5030429;28;20099;-77
2022/02/12 03:17:32;;;;;;;10.20;2.63;;;;;;;2.49;54.86;98725.72;5032484;28;20344;-76
2022/02/12 03:19:58;;;;;;;10.98;2.50;;;;;;;2.51;54.80;98723.63;5029688;28;20468;-77
2022/02/12 03:22:24;;;;;;;11.20;2.20;;;;;;;2.50;54.96;98724.69;5031151;28;20060;-76
2022/02/12 03:24:50;;;;;;;11.32;2.35;;;;;;;2.47;55.05;98722.47;5048008;28;20053;-77
2022/02/12 03:27:16;;;;;;;10.95;2.17;;;;;;;2.47;55.33;98723.28;5029619;28;20049;-76
2022/02/12 03:29:44;;;;;;;9.68;2.60;;;;;;;2.49;55.26;98723.03;5032713;28;20049;-77
2022/02/12 03:32:10;;;;;;;10.32;2.30;;;;;;;2.52;55.18;98730.66;5032292;28;20132;-77
2022/02/12 03:34:36;;;;;;;11.98;2.25;;;;;;;2.64;55.10;98733.25;5032579;28;20149;-78
2022/02/12 03:37:03;;;;;;;11.93;2.30;;;;;;;2.52;54.82;98707.16;5010311;28;20049;-78
2022/02/12 03:39:29;;;;;;;8.30;2.10;;;;;;;2.59;54.96;98731.28;5047473;28;20045;-78
2022/02/12 03:41:55;;;;;;;8.90;2.03;;;;;;;2.55;55.08;98724.75;5032293;28;20563;-76
2022/02/12 03:44:21;;;;;;;10.85;2.60;;;;;;;2.53;55.28;98733.09;5023088;28;20045;-76
2022/02/12 03:46:48;;;;;;;6.75;1.92;;;;;;;2.49;55.20;98728.41;5031316;28;20569;-77
2022/02/12 03:49:14;;;;;;;10.00;2.40;;;;;;;2.50;55.43;98725.50;5031625;28;20429;-77
2022/02/12 03:51:41;;;;;;;12.23;2.30;;;;;;;2.48;55.45;98732.19;5026687;28;20046;-75
2022/02/12 03:54:07;;;;;;;8.00;2.10;;;;;;;2.47;55.34;98727.84;5028964;28;20136;-76
2022/02/12 03:56:33;;;;;;;9.77;2.30;;;;;;;2.53;55.48;98738.47;5043364;28;20075;-76
2022/02/12 03:58:59;;;;;;;10.95;2.22;;;;;;;2.59;55.84;98730.47;5026199;28;20584;-76
2022/02/12 04:01:25;;;;;;;11.27;2.30;;;;;;;2.64;56.22;98735.94;5030371;28;20057;-77
2022/02/12 04:03:53;;;;;;;9.85;2.30;;;;;;;2.52;56.85;98741.44;5046427;28;20425;-75
2022/02/12 04:06:19;;;;;;;10.13;2.65;;;;;;;2.45;57.39;98735.38;5031615;28;20073;-77
2022/02/12 04:08:45;;;;;;;12.45;2.80;;;;;;;2.45;57.70;98746.19;5046465;28;20049;-77
2022/02/12 04:11:15;;;;;;;12.35;2.83;;;;;;;2.43;57.92;98738.34;5013815;28;20052;-77
2022/02/12 04:13:42;;;;;;;10.18;2.58;;;;;;;2.38;58.03;98739.09;5030781;28;20469;-77
2022/02/12 04:16:08;;;;;;;13.35;3.20;;;;;;;2.43;57.81;98741.03;5011310;28;20041;-78
2022/02/12 04:18:34;;;;;;;12.05;2.97;;;;;;;2.25;57.83;98718.63;5031085;28;20052;-76
2022/02/12 04:21:03;;;;;;;25.27;4.07;;;;;;;2.34;57.96;98743.34;5030501;28;20391;-78
2022/02/12 04:23:29;;;;;;;15.15;3.15;;;;;;;2.32;57.83;98745.44;5027796;28;20303;-77
2022/02/12 04:25:55;;;;;;;13.20;3.15;;;;;;;2.32;57.93;98745.44;5027861;28;20052;-77
2022/02/12 04:28:22;;;;;;;15.70;2.95;;;;;;;2.29;57.92;98745.94;5026685;28;20042;-78
2022/02/12 04:30:48;;;;;;;12.70;3.40;;;;;;;2.30;57.76;98742.19;5034457;28;20096;-78
2022/02/12 04:33:15;;;;;;;14.20;2.70;;;;;;;2.41;57.49;98756.63;5027000;28;20136;-78
2022/02/12 04:35:41;;;;;;;12.00;2.58;;;;;;;2.40;57.56;98755.84;5030107;28;20055;-77
2022/02/12 04:38:08;;;;;;;12.38;2.95;;;;;;;2.39;57.88;98753.38;5046151;28;20132;-78
2022/02/12 04:40:36;;;;;;;13.88;3.03;;;;;;;2.33;57.75;98749.78;5029916;28;20045;-77
2022/02/12 04:43:03;;;;;;;13.75;2.58;;;;;;;2.39;57.63;98764.16;5030791;28;20565;-77
2022/02/12 04:45:29;;;;;;;17.20;6.35;;;;;;;2.37;57.72;98753.63;5029515;28;20045;-77
2022/02/12 04:47:56;;;;;;;17.95;5.07;;;;;;;2.39;57.66;98756.91;5011457;28;20426;-78
2022/02/12 04:50:23;;;;;;;15.52;4.43;;;;;;;2.32;57.59;98748.16;5024926;28;20107;-82
2022/02/12 04:52:52;;;;;;;14.45;3.58;;;;;;;2.46;57.65;98766.69;5030501;28;20573;-72
2022/02/12 04:55:19;;;;;;;13.73;3.50;;;;;;;2.46;57.67;98772.09;4996163;28;20122;-73
2022/02/12 04:57:46;;;;;;;11.07;3.08;;;;;;;2.40;57.60;98774.72;5028058;28;20053;-70
2022/02/12 05:00:13;;;;;;;10.10;2.90;;;;;;;2.44;57.66;98777.75;5030402;28;20490;-72
2022/02/12 05:02:42;;;;;;;9.95;2.60;;;;;;;2.47;57.45;98776.44;5029729;28;20091;-71
2022/02/12 05:05:09;;;;;;;11.20;2.30;;;;;;;2.35;57.81;98773.81;5045889;28;20456;-70
2022/02/12 05:07:35;;;;;;;11.88;3.13;;;;;;;2.40;57.76;98777.44;5029624;28;20049;-72
2022/02/12 05:10:04;;;;;;;12.90;2.90;;;;;;;2.39;57.76;98783.88;5021661;28;20090;-73
2022/02/12 05:12:33;;;;;;;11.40;2.63;;;;;;;2.37;57.77;98777.91;5029684;28;20046;-74
2022/02/12 05:14:59;;;;;;;10.48;2.75;;;;;;;2.36;57.97;98778.16;5004650;28;20446;-73
2022/02/12 05:17:25;;;;;;;11.68;2.80;;;;;;;2.35;57.82;98779.22;5028700;28;20056;-72
2022/02/12 05:19:52;;;;;;;10.93;2.50;;;;;;;2.38;57.95;98784.94;5042509;28;20063;-73
2022/02/12 05:22:19;;;;;;;8.45;2.28;;;;;;;2.32;58.24;98787.81;5004962;28;20049;-74
2022/02/12 05:24:46;;;;;;;12.85;3.38;;;;;;;2.34;58.11;98793.78;5028727;28;20046;-72
2022/02/12 05:27:13;;;;;;;11.07;2.20;;;;;;;2.29;58.37;98799.09;5043869;28;20345;-72
2022/02/12 05:29:40;;;;;;;10.80;2.53;;;;;;;2.25;58.77;98782.56;5030561;28;20045;-72
2022/02/12 05:32:07;;;;;;;15.05;2.90;;;;;;;2.35;58.50;98793.53;5029424;28;20045;-72
2022/02/12 05:34:33;;;;;;;9.50;2.95;;;;;;;2.33;58.68;98792.16;5024766;28;20076;-71
2022/02/12 05:37:00;;;;;;;11.60;3.58;;;;;;;2.29;59.05;98799.91;5029601;28;20422;-73
2022/02/12 05:39:26;;;;;;;12.45;3.60;;;;;;;2.28;59.35;98810.94;5027603;28;20049;-72
2022/02/12 05:41:52;;;;;;;15.13;4.35;;;;;;;2.30;59.29;98801.53;5027992;28;20050;-78
2022/02/12 05:44:18;;;;;;;12.63;4.75;;;;;;;2.30;59.40;98803.44;5025055;28;22494;-78
2022/02/12 05:46:46;;;;;;;14.23;4.70;;;;;;;2.45;59.21;98809.06;5034626;28;20521;-78
2022/02/12 05:49:12;;;;;;;14.35;4.75;;;;;;;2.43;59.35;98804.97;5033059;28;20049;-77
2022/02/12 05:51:38;;;;;;;20.42;6.05;;;;;;;2.43;59.41;98804.97;5034028;28;20481;-77
2022/02/12 05:54:05;;;;;;;16.27;6.70;;;;;;;2.47;59.58;98803.41;5032932;28;20057;-76
2022/02/12 05:56:34;;;;;;;21.15;8.50;;;;;;;2.47;59.49;98809.63;5033652;28;20045;-77
2022/02/12 05:59:02;;;;;;;23.92;9.55;;;;;;;2.49;59.59;98803.97;5032512;28;20148;-76
2022/02/12 06:01:28;;;;;;;26.02;9.68;;;;;;;2.54;59.54;98814.88;5024018;28;20037;-75
2022/02/12 06:03:56;;;;;;;20.50;7.25;;;;;;;2.59;59.10;98812.25;5032255;28;20049;-75
2022/02/12 06:06:22;;;;;;;17.90;5.93;;;;;;;2.61;59.39;98817.41;5033472;28;20145;-75
2022/02/12 06:08:48;;;;;;;14.90;4.60;;;;;;;2.61;59.20;98814.72;5032227;28;20366;-74
2022/02/12 06:11:16;;;;;;;16.58;4.57;;;;;;;2.65;59.30;98816.69;5033203;28;20103;-74
2022/02/12 06:13:43;;;;;;;14.02;3.85;;;;;;;2.62;58.92;98813.66;5032183;28;20063;-74
2022/02/12 06:16:09;;;;;;;10.85;3.95;;;;;;;2.71;58.72;98806.75;5033683;28;20069;-73
2022/02/12 06:18:37;;;;;;;19.17;6.72;;;;;;;2.75;58.70;98824.09;5033885;28;20474;-73
2022/02/12 06:21:07;;;;;;;16.95;5.72;;;;;;;2.78;58.48;98814.69;5031165;28;20399;-77
2022/02/12 06:23:35;;;;;;;24.23;5.03;;;;;;;2.82;58.81;98821.25;5033434;28;20344;-75
2022/02/12 06:26:01;;;;;;;13.00;4.07;;;;;;;2.75;58.73;98815.19;5048504;28;20053;-74
2022/02/12 06:28:28;;;;;;;14.20;4.07;;;;;;;2.71;58.79;98819.44;5031984;28;20076;-75
2022/02/12 06:30:54;;;;;;;10.25;3.50;;;;;;;2.64;59.01;98811.50;5032986;28;20377;-76
2022/02/12 06:33:20;;;;;;;12.48;3.60;;;;;;;2.61;59.19;98814.72;5031828;28;20103;-72
2022/02/12 06:35:46;;;;;;;13.40;4.00;;;;;;;2.68;58.74;98812.66;5033826;28;20054;-71
2022/02/12 06:38:14;;;;;;;9.57;3.08;;;;;;;2.76;58.44;98812.25;5032613;28;20505;-71
2022/02/12 06:40:40;;;;;;;8.38;2.60;;;;;;;2.80;57.92;98810.69;5045696;28;20115;-71
2022/02/12 06:43:06;;;;;;;10.50;2.92;;;;;;;2.84;57.83;98819.09;5031623;28;20049;-71
2022/02/12 06:45:34;;;;;;;7.38;2.30;;;;;;;2.91;57.25;98819.72;5032763;28;20049;-71
2022/02/12 06:48:00;;;;;;;9.70;2.53;;;;;;;3.01;56.79;98816.34;5030812;28;20046;-69
2022/02/12 06:50:26;;;;;;;8.73;2.75;;;;;;;3.13;56.12;98827.06;5023187;28;20464;-71
2022/02/12 06:52:52;;;;;;;8.57;2.20;;;;;;;2.93;56.24;98816.78;5005769;28;20046;-71
2022/02/12 06:55:20;;;;;;;24.08;10.80;;;;;;;3.00;55.93;98828.22;5032170;28;20071;-72
2022/02/12 06:57:46;;;;;;;;;;;;;;;2.95;55.75;98839.78;5031692;28;20516;-72
2022/02/12 07:00:13;;;;;;;13.57;2.92;;;;;;;2.86;55.48;98816.13;5032581;28;20023;-71
2022/02/12 07:02:40;;;;;;;13.32;2.00;;;;;;;3.05;55.17;98839.13;5033188;28;20131;-72
2022/02/12 07:05:06;;;;;;;7.65;2.00;;;;;;;3.15;55.14;98832.22;5047528;28;20060;-71
2022/02/12 07:07:42;;;;;;;9.68;2.80;;;;;;;3.00;54.90;98838.22;5032740;28;20041;-71
2022/02/12 07:10:09;;;;;;;12.55;3.05;;;;;;;3.07;55.05;98852.34;5032414;28;20120;-71
2022/02/12 07:12:37;;;;;;;10.07;2.72;;;;;;;3.17;54.81;98836.31;5031050;28;20531;-72
2022/02/12 07:15:03;;;;;;;;;;;;;;;3.11;54.63;98846.22;5032191;28;20516;-70
2022/02/12 07:17:29;;;;;;;7.63;2.22;;;;;;;3.14;54.84;98858.41;5032571;28;19925;-72
2022/02/12 07:19:55;;;;;;;10.20;2.40;;;;;;;3.10;54.59;98846.47;5030714;28;20116;-72
2022/02/12 07:22:26;;;;;;;17.23;2.45;;;;;;;3.24;54.54;98861.25;5032415;28;20049;-71
2022/02/12 07:24:52;;;;;;;8.73;2.22;;;;;;;3.32;54.10;98861.91;5032741;28;20064;-70
2022/02/12 07:27:18;;;;;;;9.10;2.50;;;;;;;3.29;53.80;98874.00;5031705;28;20570;-72
2022/02/12 07:29:46;;;;;;;12.68;2.50;;;;;;;3.32;53.54;98864.59;5030693;28;20049;-72
2022/02/12 07:32:18;;;;;;;9.85;2.88;;;;;;;3.61;53.16;98867.94;5031899;28;20038;-72
2022/02/12 07:34:44;;;;;;;10.85;2.42;;;;;;;3.75;52.74;98870.25;5032379;28;20042;-71
2022/02/12 07:37:10;;;;;;;10.65;2.80;;;;;;;3.76;52.57;98880.00;5027028;28;20045;-70
2022/02/12 07:39:37;;;;;;;11.18;3.08;;;;;;;3.71;52.36;98888.88;5032413;28;20061;-70
2022/02/12 07:42:04;;;;;;;10.35;3.40;;;;;;;3.62;52.37;98883.09;5031665;28;20056;-71
2022/02/12 07:44:30;;;;;;;6.53;2.35;;;;;;;3.72;52.11;98876.19;5026748;28;20049;-72
2022/02/12 07:46:59;;;;;;;9.10;2.25;;;;;;;3.96;51.31;98882.94;5011923;28;20472;-73
2022/02/12 07:49:25;;;;;;;10.23;2.20;;;;;;;4.07;50.55;98896.59;5039423;28;20101;-73
2022/02/12 07:51:51;;;;;;;8.65;1.70;;;;;;;4.25;50.20;98900.84;5016559;28;20038;-72
2022/02/12 07:54:18;;;;;;;7.80;1.88;;;;;;;4.30;49.90;98898.19;5032770;28;20063;-73
2022/02/12 07:56:44;;;;;;;5.75;1.77;;;;;;;4.26;49.54;98897.84;5029742;28;20046;-73
2022/02/12 07:59:10;;;;;;;12.48;1.80;;;;;;;4.13;50.04;98892.84;5031030;28;20060;-73
2022/02/12 08:01:36;;;;;;;8.23;1.70;;;;;;;4.35;50.33;98900.94;5031039;28;20139;-73
2022/02/12 08:04:04;;;;;;;6.95;1.67;;;;;;;4.42;50.29;98897.22;5023337;28;20132;-73
2022/02/12 08:09:15;;;;;;;10.20;2.33;;;;;;;4.53;50.77;98905.16;5014961;28;20054;-73
2022/02/12 08:11:42;;;;;;;11.27;2.90;;;;;;;4.56;50.35;98913.84;5031718;28;20045;-73
2022/02/12 08:14:09;;;;;;;10.30;2.58;;;;;;;4.51;50.25;98922.72;5027039;28;20054;-73
2022/02/12 08:16:35;;;;;;;9.90;2.10;;;;;;;4.40;50.41;98932.66;5034730;28;20046;-73
2022/02/12 08:19:01;;;;;;;10.15;2.38;;;;;;;4.25;50.45;98911.66;5027924;28;20049;-74
2022/02/12 08:21:31;;;;;;;10.23;2.63;;;;;;;4.33;50.58;98913.91;5029682;28;20123;-74
2022/02/12 08:23:58;;;;;;;7.85;2.00;;;;;;;4.28;49.75;98930.09;5047857;28;20506;-74
2022/02/12 08:26:24;;;;;;;8.15;1.95;;;;;;;4.26;50.02;98945.78;5030272;28;20067;-74
2022/02/12 08:28:50;;;;;;;10.98;2.90;;;;;;;4.18;49.98;98954.31;5012507;28;20060;-75
2022/02/12 08:31:16;;;;;;;9.43;2.10;;;;;;;4.04;50.21;98945.78;5023763;28;20069;-73
2022/02/12 08:33:42;;;;;;;10.45;2.35;;;;;;;3.83;50.25;98946.34;5030793;28;20042;-74
2022/02/12 08:36:09;;;;;;;11.85;2.55;;;;;;;3.88;49.87;98953.72;5011918;28;20064;-73
2022/02/12 08:38:37;;;;;;;8.35;1.85;;;;;;;3.90;49.42;98948.03;5009281;28;20042;-75
2022/02/12 08:41:03;;;;;;;8.65;2.33;;;;;;;3.94;49.19;98955.41;5028071;28;20048;-73
2022/02/12 08:43:29;;;;;;;11.65;3.33;;;;;;;4.06;48.59;98949.88;5023511;28;20091;-73
2022/02/12 08:45:56;;;;;;;9.73;3.00;;;;;;;4.40;48.36;98943.47;5004017;28;20100;-74
2022/02/12 08:48:22;;;;;;;11.32;2.75;;;;;;;4.93;47.37;98969.97;5025425;28;20049;-74
2022/02/12 08:50:48;;;;;;;9.95;3.30;;;;;;;5.27;46.45;98968.88;5031872;28;20124;-72
2022/02/12 08:53:16;;;;;;;8.98;2.70;;;;;;;5.72;45.96;98972.16;5023759;28;20054;-72
2022/02/12 08:55:44;;;;;;;7.63;2.35;;;;;;;5.83;45.34;98965.69;5029007;28;20429;-72
2022/02/12 08:58:10;;;;;;;9.13;2.20;;;;;;;5.83;45.31;98973.81;5028996;28;20126;-72
2022/02/12 09:00:36;;;;;;;7.75;2.20;;;;;;;5.58;45.38;98971.78;5026486;28;20053;-73
2022/02/12 09:03:03;;;;;;;13.98;3.40;;;;;;;5.28;45.36;98970.50;5025520;28;20654;-77
2022/02/12 09:05:29;;;;;;;9.85;1.95;;;;;;;5.05;46.09;98965.19;5014429;28;20052;-73
2022/02/12 09:07:55;;;;;;;6.97;1.70;;;;;;;4.95;45.63;98963.22;5022985;28;20048;-73
2022/02/12 09:10:21;;;;;;;7.32;1.70;;;;;;;4.86;45.34;98969.38;5022915;28;20486;-74
2022/02/12 09:12:49;;;;;;;5.20;1.48;;;;;;;4.80;45.26;98980.16;5019923;28;20128;-74
2022/02/12 09:15:15;;;;;;;6.05;1.60;;;;;;;4.82;44.90;98979.88;5030682;28;20053;-74
2022/02/12 09:17:41;;;;;;;8.73;2.90;;;;;;;4.71;44.83;98981.69;5019862;28;20072;-74
2022/02/12 09:20:08;;;;;;;6.85;2.17;;;;;;;4.77;44.34;98980.69;5038553;28;20053;-74
2022/02/12 09:22:34;;;;;;;9.83;2.20;;;;;;;4.56;44.51;98984.25;5030727;28;20060;-74
2022/02/12 09:25:00;;;;;;;8.10;2.10;;;;;;;4.73;44.48;98973.31;5022565;28;20079;-73
2022/02/12 09:27:27;;;;;;;6.43;2.00;;;;;;;4.97;44.24;98955.63;5021122;28;20490;-73
2022/02/12 09:29:58;;;;;;;7.82;1.67;;;;;;;5.10;43.42;98984.22;5011681;28;20050;-75
2022/02/12 09:32:26;;;;;;;7.47;1.40;;;;;;;5.53;42.47;98989.66;5012998;28;20046;-74
2022/02/12 09:34:53;;;;;;;10.27;1.50;;;;;;;6.14;41.98;98981.34;5011676;28;20490;-75
2022/02/12 09:37:19;;;;;;;4.50;1.30;;;;;;;6.56;40.13;98982.28;5024361;28;20056;-75
2022/02/12 09:39:45;;;;;;;7.68;1.85;;;;;;;7.37;40.82;98958.13;5007822;28;20565;-74
2022/02/12 09:42:11;;;;;;;9.15;2.00;;;;;;;7.41;40.49;98970.09;5041821;28;20114;-75
2022/02/12 09:44:38;;;;;;;8.40;1.80;;;;;;;6.95;39.98;98984.53;4999058;28;20053;-74
2022/02/12 09:47:30;;;;;;;10.37;1.87;;;;;;;6.45;39.60;98995.03;5023723;28;20062;-76
2022/02/12 09:49:58;;;;;;;3.55;1.15;;;;;;;5.80;39.69;98999.59;5041993;28;20323;-74
2022/02/12 09:52:27;;;;;;;;;;;;;;;5.67;40.40;98992.72;5031579;28;20092;-74
2022/02/12 09:54:56;;;;;;;5.28;1.33;;;;;;;5.18;39.94;98998.34;5029879;28;20139;-74
2022/02/12 09:57:22;;;;;;;3.15;0.95;;;;;;;5.23;39.66;98988.38;5045803;28;20180;-73
2022/02/12 09:59:55;;;;;;;5.25;1.23;;;;;;;5.77;38.93;98994.69;5018428;28;20049;-77
2022/02/12 10:02:23;;;;;;;2.72;1.08;;;;;;;6.92;37.49;99014.94;5022444;28;20149;-75
2022/02/12 10:05:20;;;;;;;7.18;1.25;;;;;;;7.64;36.36;99009.50;5022872;28;20064;-78
2022/02/12 10:07:47;;;;;;;3.63;1.23;;;;;;;7.67;36.13;99013.59;5024426;28;20494;-75
2022/02/12 10:10:15;;;;;;;7.93;2.00;;;;;;;7.47;36.06;98998.09;5029030;28;20041;-75
2022/02/12 10:12:41;;;;;;;8.40;1.60;;;;;;;7.28;36.20;99019.59;5030188;28;20626;-76
2022/02/12 10:15:13;;;;;;;6.07;1.65;;;;;;;6.93;36.26;99019.28;5027536;28;20057;-80
2022/02/12 10:18:03;;;;;;;10.52;1.88;;;;;;;6.70;37.04;99013.28;5028610;28;20061;-75
2022/02/12 10:20:34;;;;;;;5.78;1.70;;;;;;;6.67;36.64;99021.97;5023948;28;20471;-75
2022/02/12 10:23:06;;;;;;;5.70;1.63;;;;;;;6.46;37.07;98970.28;5026851;28;20041;-75
2022/02/12 10:25:33;;;;;;;6.38;1.88;;;;;;;6.84;37.36;99021.72;5027975;28;20533;-73
2022/02/12 10:28:00;;;;;;;10.07;1.92;;;;;;;6.55;37.97;99027.63;5027891;28;20045;-75
2022/02/12 10:30:27;;;;;;;8.07;1.92;;;;;;;7.21;37.44;99007.09;5029198;28;20053;-75
2022/02/12 10:32:55;;;;;;;8.10;1.92;;;;;;;7.94;36.75;99020.59;5031535;28;20133;-75
2022/02/12 10:35:22;;;;;;;;;;;;;;;8.27;36.37;99026.47;5033541;28;20077;-75
2022/02/12 10:37:50;;;;;;;7.88;1.95;;;;;;;9.07;35.93;99027.44;5034201;28;20455;-75
2022/02/12 10:40:16;;;;;;;8.20;2.35;;;;;;;9.84;35.10;99021.63;5032700;28;20140;-75
2022/02/12 10:42:46;;;;;;;10.80;2.50;;;;;;;10.40;34.79;99033.00;5033829;28;20068;-75
2022/02/12 10:45:16;;;;;;;10.45;3.30;;;;;;;11.02;34.21;99026.72;5030503;28;20049;-75
2022/02/12 10:47:44;;;;;;;9.73;2.50;;;;;;;11.94;32.70;99030.91;5049518;28;20053;-75
2022/02/12 10:50:12;;;;;;;10.13;2.83;;;;;;;12.34;30.83;99025.81;5032827;28;20048;-75
2022/02/12 10:52:42;;;;;;;7.00;1.65;;;;;;;11.59;31.47;99025.81;5044014;28;20131;-75
2022/02/12 10:55:20;;;;;;;8.20;1.70;;;;;;;10.91;31.82;99032.31;5032408;28;20350;-75
2022/02/12 10:57:46;;;;;;;6.88;1.80;;;;;;;10.09;33.02;99028.72;5033986;28;20064;-74
2022/02/12 11:00:14;;;;;;;9.10;1.70;;;;;;;10.16;33.59;99029.16;5032626;28;20053;-74
2022/02/12 11:02:40;;;;;;;;;;;;;;;9.77;33.32;99020.03;5026725;28;20344;-74
2022/02/12 11:05:07;;;;;;;4.88;1.63;;;;;;;10.50;32.61;99028.22;5014008;28;19972;-74
2022/02/12 11:07:33;;;;;;;6.73;1.70;;;;;;;11.42;31.93;99021.72;5018262;28;20041;-74
2022/02/12 11:10:01;;;;;;;6.37;1.60;;;;;;;12.32;30.67;99030.78;5033748;28;20084;-75
2022/02/12 11:12:29;;;;;;;7.28;1.70;;;;;;;13.22;30.11;99023.06;5033101;28;20420;-75
2022/02/12 11:14:56;;;;;;;6.47;1.97;;;;;;;13.57;29.57;99018.66;5033532;28;20144;-75
2022/02/12 11:17:23;;;;;;;6.95;2.05;;;;;;;13.64;29.35;99037.44;5032306;28;20411;-75
2022/02/12 11:19:52;;;;;;;5.38;1.90;;;;;;;13.87;29.40;99048.38;5028404;28;20053;-75
2022/02/12 11:22:18;;;;;;;7.22;2.15;;;;;;;13.91;29.54;99043.88;5033300;28;20049;-75
2022/02/12 11:24:49;;;;;;;8.32;2.08;;;;;;;13.74;29.27;99042.66;5022031;28;20510;-75
2022/02/12 11:27:22;;;;;;;4.40;1.70;;;;;;;13.57;29.04;99046.09;5028432;28;20057;-76
2022/02/12 11:29:50;;;;;;;6.88;1.98;;;;;;;13.43;29.30;99032.47;5024712;28;20211;-76
2022/02/12 11:32:19;;;;;;;6.63;1.52;;;;;;;13.55;28.94;99040.13;5031119;28;20429;-75
2022/02/12 11:35:23;;;;;;;4.90;1.65;;;;;;;13.58;28.49;99046.91;5012464;28;20141;-75
2022/02/12 11:37:50;;;;;;;6.63;1.63;;;;;;;13.26;29.07;99057.81;5013961;28;20556;-75
2022/02/12 11:40:20;;;;;;;4.88;1.65;;;;;;;13.03;28.78;99035.84;5032915;28;20096;-75
2022/02/12 11:42:50;;;;;;;11.25;2.35;;;;;;;13.36;28.78;99051.25;5031440;28;20061;-75
2022/02/12 11:45:26;;;;;;;7.10;2.00;;;;;;;12.73;28.54;99059.28;5013329;28;20046;-75
2022/02/12 11:48:28;;;;;;;6.15;2.08;;;;;;;11.94;29.73;99056.41;5001011;28;20145;-75